Time;durP1;ratioP1;P1;durP2;ratioP2;P2;SDS_P1;SDS_P2;PMS_P1;PMS_P2;Temp;Humidity;BMP_temperature;BMP_pressure;BME280_temperature;BME280_humidity;BME280_pressure;Samples;Min_cycle;Max_cycle;Signal;HPM_P1;HPM_P2
2022/06/21 00:00:32;;;;;;;11.07;5.10;;;15.10;32.50;;;;;;5019402;28;20213;-87
2022/06/21 00:03:24;;;;;;;10.33;4.63;;;15.10;36.80;;;;;;5001966;28;20248;-88
2022/06/21 00:05:52;;;;;;;9.17;5.10;;;15.00;38.10;;;;;;5002879;28;20251;-88
2022/06/21 00:08:21;;;;;;;8.03;4.87;;;15.00;41.20;;;;;;4986072;28;20626;-88
2022/06/21 00:10:47;;;;;;;13.37;5.03;;;15.00;45.10;;;;;;5001960;28;20552;-89
2022/06/21 00:13:20;;;;;;;9.30;5.20;;;14.90;44.20;;;;;;5001535;28;20275;-88
2022/06/21 00:15:48;;;;;;;11.27;5.40;;;14.80;46.90;;;;;;5001942;28;20185;-88
2022/06/21 00:18:18;;;;;;;10.20;5.00;;;14.80;48.80;;;;;;5019901;28;20186;-87
2022/06/21 00:20:45;;;;;;;11.70;5.40;;;14.80;48.70;;;;;;5002266;28;20210;-88
2022/06/21 00:23:19;;;;;;;10.43;5.67;;;14.70;50.00;;;;;;5018566;28;20176;-88
2022/06/21 00:25:46;;;;;;;13.00;5.63;;;14.70;53.40;;;;;;5002039;28;20172;-88
2022/06/21 00:28:14;;;;;;;13.20;6.20;;;14.70;54.80;;;;;;4984931;28;20195;-89
2022/06/21 00:30:40;;;;;;;12.40;5.23;;;14.70;56.40;;;;;;5000696;28;20638;-88
2022/06/21 00:33:12;;;;;;;11.00;5.70;;;14.80;55.50;;;;;;5000841;28;20716;-88
2022/06/21 00:35:41;;;;;;;10.50;6.23;;;14.80;53.20;;;;;;4984697;28;20177;-88
2022/06/21 00:38:23;;;;;;;10.87;5.77;;;14.90;52.60;;;;;;5000476;28;20215;-88
2022/06/21 00:40:49;;;;;;;11.13;5.50;;;14.80;55.00;;;;;;5013765;28;20196;-88
2022/06/21 00:43:18;;;;;;;10.13;5.13;;;14.80;54.40;;;;;;5020224;28;20621;-87
2022/06/21 00:45:46;;;;;;;8.87;5.87;;;14.80;55.40;;;;;;5021125;28;20657;-88
2022/06/21 00:48:23;;;;;;;13.40;6.13;;;14.80;57.00;;;;;;5020278;28;20260;-88
2022/06/21 00:50:57;;;;;;;11.20;6.17;;;14.80;57.30;;;;;;5020017;28;20199;-88
2022/06/21 00:53:37;;;;;;;9.57;5.90;;;14.80;59.10;;;;;;5020540;28;20175;-86
2022/06/21 00:56:23;;;;;;;9.00;5.50;;;15.00;57.80;;;;;;5020162;28;20546;-87
2022/06/21 00:58:49;;;;;;;10.03;5.53;;;14.90;55.70;;;;;;5025812;28;20173;-88
2022/06/21 01:01:28;;;;;;;13.10;5.70;;;14.90;58.70;;;;;;5043971;28;20178;-89
2022/06/21 01:04:01;;;;;;;12.53;5.63;;;14.80;58.40;;;;;;5041914;28;20249;-86
2022/06/21 01:06:34;;;;;;;9.97;5.67;;;14.90;58.50;;;;;;5043707;28;20227;-87
2022/06/21 01:09:12;;;;;;;12.97;6.23;;;14.80;60.80;;;;;;5025727;28;20182;-87
2022/06/21 01:12:00;;;;;;;12.07;5.50;;;14.70;61.70;;;;;;5004997;28;20174;-88
2022/06/21 01:14:31;;;;;;;12.23;6.20;;;14.60;62.90;;;;;;5003126;28;20215;-88
2022/06/21 01:17:09;;;;;;;13.60;6.00;;;14.50;66.80;;;;;;5000561;28;20203;-89
2022/06/21 01:19:39;;;;;;;11.23;5.93;;;14.50;69.50;;;;;;5000421;28;20241;-87
2022/06/21 01:22:27;;;;;;;12.70;6.73;;;14.40;72.20;;;;;;5002524;28;20183;-89
2022/06/21 01:25:04;;;;;;;10.93;6.17;;;14.40;74.10;;;;;;5020709;28;20188;-90
2022/06/21 01:27:30;;;;;;;12.43;6.77;;;14.40;74.70;;;;;;5023944;28;20238;-89
2022/06/21 01:29:56;;;;;;;12.37;6.73;;;14.40;77.30;;;;;;5039302;28;20197;-89
2022/06/21 01:32:25;;;;;;;10.40;6.50;;;14.40;77.70;;;;;;5017944;28;20244;-88
2022/06/21 01:34:58;;;;;;;13.40;7.00;;;14.40;77.00;;;;;;5018098;28;20152;-89
2022/06/21 01:37:28;;;;;;;8.67;6.33;;;14.40;78.50;;;;;;5022989;28;20187;-88
2022/06/21 01:40:10;;;;;;;15.43;6.87;;;14.40;78.50;;;;;;5023062;28;20232;-90
2022/06/21 01:42:41;;;;;;;10.77;6.80;;;14.40;80.60;;;;;;5023300;28;20212;-91
2022/06/21 01:45:19;;;;;;;11.33;6.60;;;14.30;77.80;;;;;;5020926;28;20193;-88
2022/06/21 01:51:14;;;;;;;15.37;7.33;;;14.30;79.50;;;;;;5024028;28;20179;-89
2022/06/21 01:54:14;;;;;;;11.90;7.50;;;14.20;81.70;;;;;;4999288;28;20169;-89
2022/06/21 01:56:48;;;;;;;10.63;7.50;;;14.20;82.90;;;;;;4982719;28;20176;-89
2022/06/21 01:59:25;;;;;;;16.93;7.80;;;14.20;84.00;;;;;;4998486;28;20230;-89
2022/06/21 02:02:01;;;;;;;12.37;7.20;;;14.20;81.60;;;;;;4998971;28;20231;-90
2022/06/21 02:04:32;;;;;;;14.33;7.93;;;14.20;83.10;;;;;;4998739;28;20586;-90
2022/06/21 02:07:06;;;;;;;11.83;7.17;;;14.20;87.20;;;;;;4999530;28;20177;-89
2022/06/21 02:09:44;;;;;;;11.23;7.80;;;14.10;85.40;;;;;;5000593;28;20230;-91
2022/06/21 02:12:14;;;;;;;12.17;8.33;;;14.30;88.40;;;;;;4998973;28;20253;-89
2022/06/21 02:14:49;;;;;;;12.57;8.57;;;14.10;88.20;;;;;;4998790;28;20186;-90
2022/06/21 02:17:24;;;;;;;11.40;7.83;;;14.10;87.30;;;;;;4999691;28;20268;-90
2022/06/21 02:20:16;;;;;;;12.40;8.10;;;14.00;87.40;;;;;;4997670;28;20717;-89
2022/06/21 02:22:42;;;;;;;12.57;8.70;;;14.00;87.70;;;;;;4999850;28;20170;-90
2022/06/21 02:25:23;;;;;;;12.20;8.90;;;14.00;86.50;;;;;;4998875;28;20737;-87
2022/06/21 02:27:51;;;;;;;14.60;8.20;;;13.90;88.20;;;;;;4994575;28;20655;-90
2022/06/21 02:30:25;;;;;;;11.70;8.67;;;13.90;89.50;;;;;;4999263;28;20176;-88
2022/06/21 02:32:53;;;;;;;12.87;9.43;;;13.90;89.80;;;;;;4999404;28;20688;-87
2022/06/21 02:35:42;;;;;;;11.93;7.87;;;13.90;90.90;;;;;;5001341;28;20266;-89
2022/06/21 02:38:19;;;;;;;13.73;8.43;;;13.90;91.00;;;;;;5007499;28;20175;-89
2022/06/21 02:40:51;;;;;;;11.23;8.23;;;13.80;91.80;;;;;;5004363;28;20210;-90
2022/06/21 02:43:22;;;;;;;13.27;8.53;;;13.90;91.00;;;;;;4999684;28;20587;-91
2022/06/21 02:45:54;;;;;;;17.30;8.63;;;13.90;90.10;;;;;;4999393;28;20190;-90
2022/06/21 02:48:26;;;;;;;12.40;8.47;;;13.90;89.40;;;;;;5000098;28;20194;-88
2022/06/21 02:51:05;;;;;;;13.80;8.87;;;13.90;90.30;;;;;;4983470;28;20175;-89
2022/06/21 02:53:37;;;;;;;20.37;9.40;;;13.90;90.40;;;;;;4999655;28;20552;-88
2022/06/21 02:56:20;;;;;;;12.50;8.80;;;14.00;90.10;;;;;;4999245;28;20221;-88
2022/06/21 02:58:53;;;;;;;14.97;8.63;;;14.10;87.90;;;;;;5012265;28;20166;-87
2022/06/21 03:01:19;;;;;;;15.13;8.93;;;14.00;87.30;;;;;;5003635;28;20771;-87
2022/06/21 03:03:58;;;;;;;11.00;8.13;;;14.10;89.00;;;;;;5001664;28;20174;-88
2022/06/21 03:06:24;;;;;;;13.87;8.60;;;14.10;86.70;;;;;;5002317;28;20195;-87
2022/06/21 03:09:16;;;;;;;11.83;8.27;;;14.00;87.90;;;;;;5004687;28;20178;-90
2022/06/21 03:11:45;;;;;;;13.50;9.07;;;14.00;88.60;;;;;;5020754;28;20215;-90
2022/06/21 03:14:18;;;;;;;12.30;8.60;;;14.10;87.80;;;;;;5021151;28;20163;-89
2022/06/21 03:16:46;;;;;;;14.47;8.90;;;14.20;85.90;;;;;;5020774;28;20173;-90
2022/06/21 03:19:27;;;;;;;11.77;8.00;;;14.20;81.80;;;;;;5020641;28;20215;-87
2022/06/21 03:21:54;;;;;;;14.40;8.73;;;14.10;83.50;;;;;;5020108;28;20180;-88
2022/06/21 03:24:23;;;;;;;11.23;8.53;;;14.20;85.90;;;;;;5020236;28;20166;-90
2022/06/21 03:26:59;;;;;;;9.20;8.13;;;14.20;83.50;;;;;;5017679;28;20182;-86
2022/06/21 03:29:25;;;;;;;12.80;8.73;;;14.10;82.00;;;;;;5003538;28;20274;-88
2022/06/21 03:31:53;;;;;;;13.63;9.00;;;14.10;85.00;;;;;;5004194;28;20607;-87
2022/06/21 03:34:21;;;;;;;13.87;9.67;;;14.10;84.20;;;;;;5016608;28;20180;-89
2022/06/21 03:42:34;;;;;;;15.30;10.43;;;14.00;88.20;;;;;;5062334;28;20173;-87
2022/06/21 03:45:10;;;;;;;14.70;10.10;;;14.00;87.20;;;;;;5060690;28;20173;-88
2022/06/21 03:47:43;;;;;;;17.30;10.90;;;14.00;88.70;;;;;;5051731;28;20563;-89
2022/06/21 03:50:25;;;;;;;16.87;10.53;;;14.00;88.40;;;;;;5022245;28;20182;-90
2022/06/21 03:53:12;;;;;;;16.40;10.23;;;14.00;89.50;;;;;;5037683;28;20691;-87
2022/06/21 03:55:58;;;;;;;14.07;9.40;;;13.90;88.10;;;;;;5040465;28;20188;-88
2022/06/21 03:58:37;;;;;;;14.67;9.90;;;13.80;90.10;;;;;;5060489;28;20156;-89
2022/06/21 04:01:17;;;;;;;17.33;9.73;;;13.80;90.80;;;;;;5050811;28;20219;-88
2022/06/21 04:03:56;;;;;;;17.77;9.37;;;13.90;90.00;;;;;;5041531;28;20624;-89
2022/06/21 04:10:00;;;;;;;12.40;9.60;;;14.00;83.80;;;;;;5057288;28;20198;-89
2022/06/21 04:13:00;;;;;;;14.37;8.50;;;14.10;84.70;;;;;;5041460;28;20331;-88
2022/06/21 04:15:41;;;;;;;12.20;8.63;;;14.30;83.30;;;;;;5039082;28;20176;-88
2022/06/21 04:18:22;;;;;;;12.57;7.90;;;14.50;76.70;;;;;;5054005;28;20164;-88
2022/06/21 04:21:00;;;;;;;14.33;7.70;;;14.80;71.80;;;;;;5059173;28;20200;-88
2022/06/21 04:23:42;;;;;;;12.47;6.97;;;15.00;65.90;;;;;;5048075;28;20167;-89
2022/06/21 04:26:32;;;;;;;12.93;7.20;;;15.10;57.90;;;;;;5044476;28;20188;-89
2022/06/21 04:29:31;;;;;;;12.17;7.37;;;15.30;55.80;;;;;;5042790;28;20173;-89
2022/06/21 04:32:10;;;;;;;10.83;6.73;;;15.50;51.60;;;;;;5029475;28;20707;-89
2022/06/21 04:34:45;;;;;;;11.07;6.30;;;15.70;46.00;;;;;;5057863;28;20163;-89
2022/06/21 04:37:15;;;;;;;10.17;5.67;;;15.70;36.90;;;;;;5057029;28;20177;-89
2022/06/21 04:39:52;;;;;;;10.13;6.50;;;15.70;34.70;;;;;;5054189;28;20208;-88
2022/06/21 04:42:37;;;;;;;10.87;5.70;;;15.40;35.60;;;;;;5044338;28;20192;-89
2022/06/21 04:45:11;;;;;;;10.67;6.53;;;15.40;37.20;;;;;;5042065;28;20176;-88
2022/06/21 04:48:32;;;;;;;11.00;6.80;;;15.30;37.80;;;;;;5055943;28;20189;-89
2022/06/21 04:51:09;;;;;;;10.00;6.00;;;15.40;35.50;;;;;;4979205;28;20184;-91
2022/06/21 04:53:54;;;;;;;9.43;6.20;;;15.40;34.60;;;;;;5043991;28;20173;-89
2022/06/21 04:56:53;;;;;;;8.27;5.80;;;15.40;33.20;;;;;;5044962;28;20196;-88
2022/06/21 04:59:20;;;;;;;12.73;6.97;;;15.40;34.50;;;;;;5062723;28;20227;-88
2022/06/21 05:01:48;;;;;;;13.47;6.73;;;15.30;37.50;;;;;;5063692;28;20168;-89
2022/06/21 05:04:22;;;;;;;9.23;5.67;;;15.30;39.30;;;;;;5062851;28;20172;-90
2022/06/21 05:06:51;;;;;;;9.80;6.20;;;15.30;29.50;;;;;;5062661;28;20177;-91
2022/06/21 05:09:23;;;;;;;11.30;6.70;;;15.40;29.90;;;;;;5061907;28;20161;-89
2022/06/21 05:12:16;;;;;;;12.50;6.90;;;15.50;34.30;;;;;;5045752;28;20173;-90
2022/06/21 05:14:49;;;;;;;10.67;6.40;;;15.60;27.10;;;;;;5061960;28;20180;-89
2022/06/21 05:17:19;;;;;;;13.43;6.30;;;15.50;31.60;;;;;;5062767;28;20153;-90
2022/06/21 05:19:51;;;;;;;8.77;6.30;;;15.50;27.20;;;;;;5058416;28;20284;-87
2022/06/21 05:22:28;;;;;;;11.20;7.27;;;15.70;23.90;;;;;;5059530;28;20204;-87
2022/06/21 05:24:57;;;;;;;8.40;6.27;;;15.90;23.50;;;;;;5060740;28;20165;-91
2022/06/21 05:28:02;;;;;;;11.40;6.93;;;15.90;14.70;;;;;;5048306;28;20187;-88
2022/06/21 05:30:56;;;;;;;9.50;6.10;;;16.00;11.40;;;;;;5044560;28;20232;-87
2022/06/21 05:33:32;;;;;;;13.20;6.73;;;16.10;5.30;;;;;;5045786;28;20177;-88
2022/06/21 05:36:05;;;;;;;13.50;6.77;;;16.20;10.80;;;;;;5046678;28;20177;-88
2022/06/21 05:38:33;;;;;;;15.23;6.70;;;16.40;6.10;;;;;;5039972;28;20571;-87
2022/06/21 05:41:05;;;;;;;13.17;5.60;;;16.70;1.00;;;;;;5046873;28;20204;-87
2022/06/21 05:43:45;;;;;;;9.80;6.00;;;16.50;1.00;;;;;;5050434;28;20156;-91
2022/06/21 05:46:19;;;;;;;12.33;6.27;;;16.30;1.00;;;;;;5046078;28;20165;-90
2022/06/21 05:48:45;;;;;;;10.93;5.93;;;16.20;1.00;;;;;;5061361;28;20204;-87
2022/06/21 05:51:20;;;;;;;14.07;5.80;;;16.20;1.00;;;;;;5062112;28;20185;-88
2022/06/21 05:54:12;;;;;;;9.83;5.67;;;16.30;1.00;;;;;;5079618;28;20162;-89
2022/06/21 05:56:40;;;;;;;13.60;5.70;;;16.40;1.00;;;;;;5040348;28;20265;-92
2022/06/21 05:59:12;;;;;;;13.00;6.67;;;16.50;1.00;;;;;;5039576;28;20230;-93
2022/06/21 06:02:01;;;;;;;12.77;5.50;;;16.50;1.00;;;;;;5040987;28;20173;-92
2022/06/21 06:04:47;;;;;;;11.73;6.00;;;16.50;1.00;;;;;;5040342;28;20207;-90
2022/06/21 06:07:33;;;;;;;8.80;5.43;;;16.60;1.00;;;;;;5023233;28;20272;-92
2022/06/21 06:10:01;;;;;;;9.07;5.37;;;16.90;1.00;;;;;;5021149;28;20655;-92
2022/06/21 06:12:39;;;;;;;10.77;5.43;;;16.90;1.00;;;;;;5039672;28;20225;-92
2022/06/21 06:15:13;;;;;;;11.40;5.63;;;17.10;1.00;;;;;;5020786;28;20572;-95
2022/06/21 06:18:02;;;;;;;11.07;5.50;;;17.50;1.00;;;;;;5033924;28;20283;-90
2022/06/21 06:20:37;;;;;;;9.43;4.97;;;17.70;1.00;;;;;;5041840;28;20365;-89
2022/06/21 06:23:16;;;;;;;12.13;5.80;;;17.90;1.00;;;;;;5042770;28;20172;-90
2022/06/21 06:25:52;;;;;;;8.00;5.00;;;17.70;1.00;;;;;;5043894;28;20179;-88
2022/06/21 06:28:44;;;;;;;10.97;5.57;;;17.60;1.00;;;;;;5044229;28;20244;-90
2022/06/21 06:31:25;;;;;;;11.03;5.57;;;17.60;1.00;;;;;;5040056;28;20173;-92
2022/06/21 06:33:55;;;;;;;9.50;5.63;;;17.60;1.00;;;;;;5044802;28;20191;-89
2022/06/21 06:36:27;;;;;;;12.53;6.40;;;17.80;1.00;;;;;;5047540;28;20222;-90
2022/06/21 06:39:00;;;;;;;7.97;5.30;;;18.00;1.00;;;;;;5025036;28;20651;-90
2022/06/21 06:41:46;;;;;;;21.07;7.00;;;18.10;1.00;;;;;;5036675;28;20179;-88
2022/06/21 06:44:12;;;;;;;10.57;5.63;;;18.00;1.00;;;;;;5038040;28;20241;-92
2022/06/21 06:46:43;;;;;;;10.90;5.27;;;18.00;1.00;;;;;;5038770;28;20701;-90
2022/06/21 06:49:21;;;;;;;8.63;5.33;;;17.90;1.00;;;;;;5045311;28;20180;-91
2022/06/21 06:52:04;;;;;;;10.83;5.17;;;18.10;1.00;;;;;;5060953;28;20224;-90
2022/06/21 06:54:38;;;;;;;7.93;5.50;;;17.90;1.00;;;;;;5047794;28;20181;-90
2022/06/21 06:57:13;;;;;;;9.00;5.53;;;17.70;1.00;;;;;;5041515;28;20179;-89
2022/06/21 06:59:43;;;;;;;10.13;5.93;;;17.70;1.00;;;;;;5038186;28;20351;-89
2022/06/21 07:02:35;;;;;;;7.73;5.70;;;17.90;1.00;;;;;;5038188;28;20259;-89
2022/06/21 07:05:29;;;;;;;8.43;5.47;;;17.90;1.00;;;;;;5056283;28;20200;-90
2022/06/21 07:08:02;;;;;;;10.93;5.73;;;17.80;1.00;;;;;;5037692;28;20167;-90
2022/06/21 07:10:28;;;;;;;11.40;5.70;;;17.60;1.00;;;;;;5052714;28;20173;-89
2022/06/21 07:12:56;;;;;;;13.17;5.83;;;17.80;1.00;;;;;;5059718;28;20182;-89
2022/06/21 07:15:37;;;;;;;8.37;5.57;;;18.00;1.00;;;;;;5044364;28;20176;-89
2022/06/21 07:18:04;;;;;;;8.03;6.97;;;18.10;1.00;;;;;;5041186;28;20176;-89
2022/06/21 07:20:42;;;;;;;8.20;5.40;;;18.00;1.00;;;;;;5038512;28;20200;-91
2022/06/21 07:23:20;;;;;;;7.27;5.40;;;17.80;1.00;;;;;;5038309;28;20176;-89
2022/06/21 07:25:49;;;;;;;8.53;5.40;;;18.00;1.00;;;;;;5038918;28;20228;-88
2022/06/21 07:28:34;;;;;;;9.43;5.93;;;18.00;1.00;;;;;;5038570;28;20240;-89
2022/06/21 07:31:08;;;;;;;10.30;6.03;;;17.80;1.00;;;;;;5052337;28;20181;-88
2022/06/21 07:33:47;;;;;;;8.00;5.77;;;17.90;1.00;;;;;;5055444;28;20179;-89
2022/06/21 07:36:21;;;;;;;8.33;6.30;;;18.10;1.00;;;;;;5049349;28;20687;-89
2022/06/21 07:38:56;;;;;;;9.90;5.37;;;18.00;1.00;;;;;;5040995;28;20564;-90
2022/06/21 07:41:38;;;;;;;8.90;5.70;;;18.00;1.00;;;;;;5040491;28;20180;-90
2022/06/21 07:44:29;;;;;;;8.17;5.83;;;18.00;1.00;;;;;;5040466;28;20229;-92
2022/06/21 07:47:21;;;;;;;10.90;6.03;;;17.90;1.00;;;;;;5039879;28;20201;-90
2022/06/21 07:50:09;;;;;;;10.03;6.07;;;17.90;1.00;;;;;;5040384;28;20169;-90
2022/06/21 07:52:40;;;;;;;10.17;6.07;;;18.00;1.00;;;;;;5038771;28;20215;-89
2022/06/21 07:55:35;;;;;;;14.97;6.30;;;18.00;1.00;;;;;;5037006;28;20176;-89
2022/06/21 07:58:10;;;;;;;9.20;5.73;;;17.90;1.00;;;;;;5036569;28;20245;-88
2022/06/21 08:09:13;;;;;;;11.17;6.40;;;18.10;1.00;;;;;;5077335;28;20183;-89
2022/06/21 08:11:44;;;;;;;10.97;6.13;;;18.10;1.00;;;;;;5051508;28;20182;-91
2022/06/21 08:14:12;;;;;;;8.37;5.57;;;18.30;1.00;;;;;;5045136;28;20172;-89
2022/06/21 08:17:01;;;;;;;12.17;6.50;;;18.30;1.00;;;;;;5043597;28;20225;-90
2022/06/21 08:19:58;;;;;;;9.13;6.90;;;18.30;1.00;;;;;;5042390;28;20198;-91
2022/06/21 08:22:33;;;;;;;9.90;6.03;;;18.40;1.00;;;;;;5055258;28;20695;-90
2022/06/21 08:25:36;;;;;;;10.87;6.57;;;18.50;1.00;;;;;;5042605;28;20175;-90
2022/06/21 08:28:23;;;;;;;11.70;6.43;;;18.50;1.00;;;;;;5030762;28;20187;-89
2022/06/21 08:30:57;;;;;;;8.93;6.10;;;18.30;1.00;;;;;;5053465;28;20178;-91
2022/06/21 08:34:03;;;;;;;8.90;6.03;;;18.40;1.00;;;;;;5063878;28;20253;-88
2022/06/21 08:36:41;;;;;;;8.70;6.10;;;18.60;1.00;;;;;;4998725;28;20293;-89
2022/06/21 08:39:38;;;;;;;12.93;6.43;;;18.50;1.00;;;;;;5049515;28;20271;-88
2022/06/21 08:42:42;;;;;;;10.63;5.37;;;18.50;1.00;;;;;;5042488;28;20174;-91
2022/06/21 08:45:40;;;;;;;11.83;6.03;;;18.30;1.00;;;;;;5041022;28;20179;-90
2022/06/21 08:48:17;;;;;;;10.17;5.70;;;18.40;1.00;;;;;;5058160;28;20200;-92
2022/06/21 08:51:13;;;;;;;9.87;5.67;;;18.40;1.00;;;;;;5056074;28;20168;-91
2022/06/21 08:54:08;;;;;;;8.10;5.10;;;18.50;1.00;;;;;;5059963;28;20174;-91
2022/06/21 08:56:49;;;;;;;11.53;5.77;;;18.60;1.00;;;;;;5061675;28;20180;-90
2022/06/21 08:59:14;;;;;;;8.70;5.57;;;18.60;1.00;;;;;;5064862;28;20204;-90
2022/06/21 09:02:14;;;;;;;9.60;5.00;;;18.60;1.00;;;;;;5064356;28;20271;-90
2022/06/21 09:05:14;;;;;;;17.83;5.53;;;18.60;1.00;;;;;;5064078;28;20170;-92
2022/06/21 09:08:03;;;;;;;11.40;6.30;;;18.80;1.00;;;;;;5065195;28;20168;-92
2022/06/21 09:10:41;;;;;;;9.20;5.47;;;18.70;1.00;;;;;;5065634;28;20171;-90
2022/06/21 09:13:35;;;;;;;9.40;5.33;;;18.70;1.00;;;;;;5064635;28;20177;-89
2022/06/21 09:16:09;;;;;;;11.17;5.70;;;18.70;1.00;;;;;;5065136;28;20185;-90
2022/06/21 09:19:09;;;;;;;8.27;5.73;;;18.70;1.00;;;;;;5065080;28;20182;-90
2022/06/21 09:21:47;;;;;;;8.20;5.47;;;18.60;1.00;;;;;;5064512;28;20230;-90
2022/06/21 09:24:19;;;;;;;13.37;6.43;;;18.50;1.00;;;;;;5060101;28;20176;-90
2022/06/21 09:27:04;;;;;;;9.23;5.50;;;18.60;1.00;;;;;;5077889;28;20175;-91
2022/06/21 09:30:03;;;;;;;9.00;6.13;;;18.70;1.00;;;;;;5058487;28;20547;-90
2022/06/21 09:32:51;;;;;;;9.73;6.47;;;18.80;1.00;;;;;;5061369;28;20179;-91
2022/06/21 09:35:17;;;;;;;11.40;6.13;;;18.70;1.00;;;;;;5078600;28;20178;-90
2022/06/21 09:38:10;;;;;;;15.53;6.33;;;18.80;1.00;;;;;;5060974;28;20562;-91
2022/06/21 09:40:40;;;;;;;14.47;7.13;;;19.00;1.00;;;;;;5063838;28;20216;-90
2022/06/21 09:43:23;;;;;;;9.33;6.00;;;19.00;1.00;;;;;;5079921;28;20165;-90
2022/06/21 09:46:16;;;;;;;8.83;5.80;;;18.80;1.00;;;;;;5077826;28;20214;-90
2022/06/21 09:48:59;;;;;;;7.43;5.40;;;18.60;1.00;;;;;;5072316;28;20226;-90
2022/06/21 09:51:32;;;;;;;8.77;6.10;;;18.60;1.00;;;;;;5065757;28;20172;-90
2022/06/21 09:54:38;;;;;;;11.73;5.83;;;18.70;1.00;;;;;;5042883;28;20206;-90
2022/06/21 09:57:19;;;;;;;9.07;5.63;;;18.70;1.00;;;;;;5027640;28;20162;-93
2022/06/21 10:00:23;;;;;;;7.93;5.30;;;18.80;1.00;;;;;;5061038;28;20202;-91
2022/06/21 10:13:25;;;;;;;9.43;5.60;;;19.10;1.00;;;;;;5064109;28;20243;-91
2022/06/21 10:16:13;;;;;;;13.57;6.10;;;19.10;1.00;;;;;;5045417;28;20235;-89
2022/06/21 10:18:56;;;;;;;7.33;5.00;;;19.20;1.00;;;;;;5044839;28;20170;-91
2022/06/21 10:21:44;;;;;;;9.60;5.40;;;19.00;1.00;;;;;;5044443;28;20326;-90
2022/06/21 10:24:37;;;;;;;9.83;5.70;;;18.70;1.00;;;;;;5044105;28;20201;-90
2022/06/21 10:27:30;;;;;;;9.83;5.50;;;18.70;1.00;;;;;;5039885;28;20176;-90
2022/06/21 10:29:58;;;;;;;10.30;6.17;;;18.60;1.00;;;;;;5040433;28;20216;-90
2022/06/21 10:32:46;;;;;;;12.63;5.80;;;18.50;1.00;;;;;;5033374;28;20215;-91
2022/06/21 10:35:29;;;;;;;10.70;6.07;;;18.70;1.00;;;;;;5021045;28;20174;-89
2022/06/21 10:38:21;;;;;;;9.87;5.90;;;18.70;1.00;;;;;;5021437;28;20200;-93
2022/06/21 10:40:57;;;;;;;10.40;5.67;;;18.70;1.00;;;;;;5027303;28;20208;-91
2022/06/21 10:43:50;;;;;;;10.47;5.90;;;18.60;1.00;;;;;;5026185;28;20172;-90
2022/06/21 10:46:26;;;;;;;14.80;7.57;;;18.70;1.00;;;;;;5020184;28;20220;-89
2022/06/21 10:49:24;;;;;;;10.73;5.73;;;18.80;1.00;;;;;;5018946;28;20689;-92
2022/06/21 10:52:01;;;;;;;9.93;6.20;;;18.90;1.00;;;;;;5020340;28;20188;-92
2022/06/21 10:54:43;;;;;;;9.67;5.63;;;19.10;1.00;;;;;;5020490;28;20665;-89
2022/06/21 10:57:30;;;;;;;11.60;6.10;;;19.00;1.00;;;;;;5018630;28;20177;-89
2022/06/21 11:03:50;;;;;;;11.30;6.60;;;19.10;1.00;;;;;;5038476;28;20177;-91
2022/06/21 11:06:54;;;;;;;10.53;5.87;;;19.20;1.00;;;;;;5020335;28;20175;-90
2022/06/21 11:09:31;;;;;;;10.37;6.40;;;19.10;1.00;;;;;;4984105;28;20200;-90
2022/06/21 11:15:02;;;;;;;11.27;5.87;;;19.10;1.00;;;;;;5041905;28;20193;-92
2022/06/21 11:17:46;;;;;;;10.10;6.10;;;19.00;1.00;;;;;;5021726;28;20184;-91
2022/06/21 11:20:53;;;;;;;12.90;6.50;;;19.00;1.00;;;;;;5022054;28;20238;-91
2022/06/21 11:23:45;;;;;;;9.13;5.10;;;18.90;1.00;;;;;;5021145;28;20178;-91
2022/06/21 11:26:26;;;;;;;12.43;5.97;;;18.90;1.00;;;;;;5031024;28;20187;-92
2022/06/21 11:29:00;;;;;;;9.73;5.43;;;18.70;1.00;;;;;;5044364;28;20164;-90
2022/06/21 11:31:54;;;;;;;9.33;5.00;;;18.60;1.00;;;;;;5043869;28;20173;-90
2022/06/21 11:34:39;;;;;;;8.03;5.63;;;18.70;1.00;;;;;;5004690;28;20180;-90
2022/06/21 11:37:28;;;;;;;9.30;5.67;;;18.80;1.00;;;;;;5037013;28;20237;-92
2022/06/21 11:40:22;;;;;;;12.63;5.50;;;18.80;1.00;;;;;;5071897;28;20217;-89
2022/06/21 11:42:55;;;;;;;9.23;5.17;;;18.80;1.00;;;;;;5027575;28;20275;-91
2022/06/21 11:45:42;;;;;;;10.53;5.50;;;18.90;1.00;;;;;;5027479;28;20228;-91
2022/06/21 11:48:28;;;;;;;12.83;5.83;;;19.00;1.00;;;;;;5017834;28;20194;-91
2022/06/21 11:51:09;;;;;;;11.20;5.77;;;19.20;1.00;;;;;;5027325;28;20174;-91
2022/06/21 11:53:58;;;;;;;9.90;5.70;;;19.10;1.00;;;;;;5020749;28;20241;-90
2022/06/21 11:56:49;;;;;;;11.23;6.30;;;19.20;1.00;;;;;;5022062;28;20661;-90
2022/06/21 11:59:24;;;;;;;9.23;5.90;;;19.20;1.00;;;;;;5021425;28;20193;-91
2022/06/21 12:02:29;;;;;;;8.17;5.33;;;19.10;1.00;;;;;;5045742;28;20247;-91
2022/06/21 12:05:26;;;;;;;9.50;5.50;;;19.00;1.00;;;;;;5044166;28;20256;-91
2022/06/21 12:08:11;;;;;;;9.77;5.70;;;18.80;1.00;;;;;;5027088;28;20358;-89
2022/06/21 12:10:56;;;;;;;8.93;6.27;;;18.90;1.00;;;;;;5031918;28;20198;-90
2022/06/21 12:17:06;;;;;;;9.17;5.60;;;19.00;1.00;;;;;;5039906;28;20212;-90
2022/06/21 12:19:38;;;;;;;11.27;5.47;;;19.10;1.00;;;;;;5021923;28;20567;-90
2022/06/21 12:22:42;;;;;;;11.07;5.13;;;19.20;1.00;;;;;;5021629;28;20181;-91
2022/06/21 12:25:13;;;;;;;7.80;4.73;;;19.50;1.00;;;;;;5040220;28;20250;-91
2022/06/21 12:27:39;;;;;;;6.83;4.57;;;19.50;99.90;;;;;;5040239;28;20172;-90
2022/06/21 12:30:26;;;;;;;8.07;4.73;;;19.60;99.90;;;;;;5023947;28;20196;-91
2022/06/21 12:33:00;;;;;;;9.83;4.70;;;19.50;99.90;;;;;;5035107;28;20227;-90
2022/06/21 12:35:56;;;;;;;10.17;5.10;;;19.60;99.90;;;;;;5040103;28;20183;-90
2022/06/21 12:38:34;;;;;;;8.20;4.83;;;19.60;99.90;;;;;;5028390;28;20212;-91
2022/06/21 12:41:18;;;;;;;7.90;4.90;;;19.80;99.90;;;;;;5023026;28;20219;-91
2022/06/21 12:44:03;;;;;;;10.40;5.07;;;19.70;1.00;;;;;;5022570;28;20260;-92
2022/06/21 12:46:55;;;;;;;9.70;5.53;;;19.80;1.00;;;;;;5022268;28;20173;-91
2022/06/21 12:49:46;;;;;;;7.40;4.97;;;19.50;1.00;;;;;;5022348;28;20179;-90
2022/06/21 12:52:43;;;;;;;7.27;4.87;;;19.50;1.00;;;;;;5035073;28;20174;-89
2022/06/21 12:55:35;;;;;;;8.90;5.53;;;19.60;1.00;;;;;;5039360;28;20177;-90
2022/06/21 12:58:12;;;;;;;8.27;5.00;;;19.70;1.00;;;;;;5025165;28;20197;-89
2022/06/21 13:04:35;;;;;;;8.03;5.13;;;19.70;1.00;;;;;;5039619;28;20314;-92
2022/06/21 13:07:25;;;;;;;9.50;5.00;;;19.80;1.00;;;;;;5022828;28;20198;-92
2022/06/21 13:10:28;;;;;;;10.03;5.70;;;19.70;1.00;;;;;;5021088;28;20330;-89
2022/06/21 13:13:24;;;;;;;7.50;5.00;;;19.50;1.00;;;;;;5021445;28;20240;-89
2022/06/21 13:16:04;;;;;;;13.77;5.97;;;19.70;1.00;;;;;;5021070;28;20719;-87
2022/06/21 13:18:48;;;;;;;7.17;5.20;;;19.80;1.00;;;;;;5021444;28;20233;-89
2022/06/21 13:21:29;;;;;;;12.90;5.23;;;20.00;99.90;;;;;;5021328;28;20618;-90
2022/06/21 13:24:17;;;;;;;11.90;5.47;;;20.10;1.00;;;;;;5021044;28;20630;-89
2022/06/21 13:27:10;;;;;;;11.77;5.20;;;20.20;1.00;;;;;;5022397;28;20184;-92
2022/06/21 13:29:55;;;;;;;9.03;5.27;;;20.00;1.00;;;;;;5020892;28;20180;-89
2022/06/21 13:32:27;;;;;;;9.13;5.50;;;19.60;1.00;;;;;;5021845;28;20190;-91
2022/06/21 13:35:17;;;;;;;13.80;6.10;;;19.30;1.00;;;;;;5021514;28;20674;-91
2022/06/21 13:37:59;;;;;;;9.73;5.30;;;19.30;1.00;;;;;;5023299;28;20198;-91
2022/06/21 13:40:27;;;;;;;11.43;5.97;;;19.40;1.00;;;;;;5020089;28;20211;-91
2022/06/21 13:43:14;;;;;;;8.47;6.13;;;19.40;1.00;;;;;;5032032;28;20175;-89
2022/06/21 13:45:53;;;;;;;11.93;5.47;;;19.60;1.00;;;;;;5037909;28;20177;-91
2022/06/21 13:48:40;;;;;;;8.87;5.40;;;19.50;1.00;;;;;;5034540;28;20197;-90
2022/06/21 13:51:15;;;;;;;11.30;5.90;;;19.60;1.00;;;;;;5039375;28;20227;-90
2022/06/21 13:54:01;;;;;;;9.83;6.03;;;19.60;1.00;;;;;;5065726;28;20194;-89
2022/06/21 13:56:48;;;;;;;8.23;5.50;;;19.80;1.00;;;;;;5046461;28;20171;-92
2022/06/21 13:59:34;;;;;;;9.53;5.77;;;19.80;1.00;;;;;;5023170;28;20202;-90
2022/06/21 14:02:26;;;;;;;7.63;5.67;;;19.90;99.90;;;;;;5031754;28;20178;-90
2022/06/21 14:04:59;;;;;;;9.23;5.87;;;20.00;99.90;;;;;;5041559;28;20177;-93
2022/06/21 14:08:23;;;;;;;10.57;6.47;;;20.10;99.90;;;;;;5041056;28;20174;-92
2022/06/21 14:10:55;;;;;;;8.97;5.73;;;20.20;99.90;;;;;;4980170;28;20192;-91
2022/06/21 14:13:42;;;;;;;8.27;5.87;;;20.30;99.90;;;;;;5039559;28;20188;-92
2022/06/21 14:16:19;;;;;;;10.80;5.97;;;20.40;99.90;;;;;;5040252;28;20626;-90
2022/06/21 14:19:03;;;;;;;7.00;5.60;;;20.70;99.90;;;;;;5041913;28;20199;-92
2022/06/21 14:21:41;;;;;;;8.27;5.80;;;20.70;99.90;;;;;;5040273;28;20212;-90
2022/06/21 14:24:49;;;;;;;9.57;5.53;;;20.60;99.90;;;;;;5040802;28;20169;-90
2022/06/21 14:27:34;;;;;;;11.73;5.13;;;20.50;99.90;;;;;;5039759;28;20187;-90
2022/06/21 14:30:06;;;;;;;9.80;5.33;;;20.40;99.90;;;;;;5038323;28;20683;-89
2022/06/21 14:32:58;;;;;;;11.97;5.57;;;20.40;99.90;;;;;;5039162;28;20172;-90
2022/06/21 14:35:53;;;;;;;8.53;5.77;;;20.70;99.90;;;;;;5038935;28;20198;-92
2022/06/21 14:38:27;;;;;;;8.30;5.77;;;20.80;99.90;;;;;;5038069;28;20196;-91